Cape Byron AWS, Australia

5:12 PM AEDT on December 04, 2016 (GMT +1100)
Suffolk Park | | Change Station

Elev 33 ft 28.69 °S, 153.61 °E | Updated 9 seconds ago

Clear
Clear
84.2 °F
Feels Like 98 °F
N
5.6
Wind Variable Wind from NE
Gusts 7.4 mph

Today
High -- | Low -- °F
--% Chance of Precip.
Yesterday
High -- | Low -- °F
Precip. -- in
Pressure 29.92 in
Visibility -9999.0 miles
Clouds
Heat Index 98 °F
Dew Point 80 °F
Humidity 88%
Rainfall 0.00 in
Snow Depth Not available.
5:39 AM 7:31 PM
Waxing Crescent, 20% visible
METAR YBCG 040600Z AUTO 36012KT //// // NCD 26/21 Q1013 RF00.0/000.0
Pressure 29.92 in
Visibility -9999.0 miles
Clouds
Heat Index 98 °F
Dew Point 80 °F
Humidity 88%
Rainfall 0.00 in
Snow Depth Not available.
5:39 AM 7:31 PM
Waxing Crescent, 20% visible
METAR YBCG 040600Z AUTO 36012KT //// // NCD 26/21 Q1013 RF00.0/000.0

10-Day Weather Forecast

×

Almanac

Astronomy

Dec. 04, 2016 Rise Set
Actual Time
Civil Twilight
Nautical Twilight
Astronomical Twilight
Moon
Length of Visible Light
Length of Day
Tomorrow will be .
, % of the Moon is Illuminated

Today's Extremes

Country Highs Country Lows

Community

WunderPhotos

Upload Photos

1,955,586 photos uploaded!

WunderBlog® & News

Nearby

Air Quality

  Air Quality AQ Index Pollutant
Not available.

Snow Depth

Station Depth Elevation

Earthquake Activity

City Distance Mag. Time & Date
Minimum magnitude displayed is 2.5.

Coastal Water Temperatures

Place Temperature

Stations

Nearby Weather Stations

Station Location Temp. Windchill Dew Point Humidity Wind Precip. Elev Updated Type